createdAt,value
2023-01-30T00:00:04.254Z,-2.516479
2023-01-30T00:03:29.543Z,-2.677612
2023-01-30T00:06:54.810Z,-2.667542
2023-01-30T00:10:20.282Z,-2.838745
2023-01-30T00:13:45.396Z,-2.738037
2023-01-30T00:17:10.655Z,-2.657471
2023-01-30T00:20:35.972Z,-2.576904
2023-01-30T00:24:01.299Z,-2.476196
2023-01-30T00:27:26.581Z,-2.365417
2023-01-30T00:30:51.908Z,-2.425842
2023-01-30T00:34:17.102Z,-2.456055
2023-01-30T00:37:42.358Z,-2.516479
2023-01-30T00:41:07.630Z,-2.425842
2023-01-30T00:44:32.938Z,-2.415771
2023-01-30T00:47:58.175Z,-2.425842
2023-01-30T00:51:23.425Z,-2.486267
2023-01-30T00:54:48.723Z,-2.425842
2023-01-30T00:58:13.994Z,-2.425842
2023-01-30T01:01:39.338Z,-2.445984
2023-01-30T01:05:04.574Z,-2.546692
2023-01-30T01:08:29.882Z,-2.516479
2023-01-30T01:11:55.178Z,-2.425842
2023-01-30T01:15:20.762Z,-2.315063
2023-01-30T01:18:45.737Z,-2.335205
2023-01-30T01:22:11.029Z,-2.385559
2023-01-30T01:25:36.321Z,-2.385559
2023-01-30T01:29:01.602Z,-2.294922
2023-01-30T01:32:26.847Z,-2.27478
2023-01-30T01:35:52.100Z,-2.27478
2023-01-30T01:39:17.380Z,-2.204285
2023-01-30T01:42:42.653Z,-2.133789
2023-01-30T01:46:07.995Z,-2.123718
2023-01-30T01:49:33.216Z,-2.083435
2023-01-30T01:52:58.470Z,-2.153931
2023-01-30T01:56:23.724Z,-2.093506
2023-01-30T01:59:49.031Z,-2.184143
2023-01-30T02:03:14.302Z,-2.244568
2023-01-30T02:06:39.583Z,-2.365417
2023-01-30T02:10:04.884Z,-2.345276
2023-01-30T02:13:30.148Z,-2.244568
2023-01-30T02:16:55.424Z,-2.164001
2023-01-30T02:20:20.720Z,-2.103577
2023-01-30T02:23:45.986Z,-2.063293
2023-01-30T02:27:11.283Z,-1.982727
2023-01-30T02:30:36.604Z,-1.982727
2023-01-30T02:34:01.838Z,-2.083435
2023-01-30T02:37:27.103Z,-2.133789
2023-01-30T02:40:52.370Z,-2.093506
2023-01-30T02:44:17.664Z,-2.27478
2023-01-30T02:47:42.922Z,-2.315063
2023-01-30T02:51:08.206Z,-2.244568
2023-01-30T02:54:33.535Z,-2.244568
2023-01-30T02:57:58.779Z,-2.214355
2023-01-30T03:01:24.096Z,-2.234497
2023-01-30T03:04:49.346Z,-2.164001
2023-01-30T03:08:14.615Z,-2.164001
2023-01-30T03:11:39.916Z,-2.164001
2023-01-30T03:15:05.192Z,-2.153931
2023-01-30T03:18:30.445Z,-2.153931
2023-01-30T03:21:55.727Z,-2.204285
2023-01-30T03:25:21.026Z,-2.184143
2023-01-30T03:28:46.304Z,-2.123718
2023-01-30T03:32:11.585Z,-2.063293
2023-01-30T03:35:36.871Z,-2.033081
2023-01-30T03:39:02.149Z,-2.123718
2023-01-30T03:42:27.486Z,-2.093506
2023-01-30T03:45:52.809Z,-1.952515
2023-01-30T03:49:18.058Z,-2.093506
2023-01-30T03:52:43.387Z,-2.053223
2023-01-30T03:56:08.760Z,-1.922302
2023-01-30T03:59:33.961Z,-1.912231
2023-01-30T04:02:59.282Z,-1.902161
2023-01-30T04:06:24.566Z,-1.922302
2023-01-30T04:09:49.882Z,-1.882019
2023-01-30T04:13:15.183Z,-1.821594
2023-01-30T04:16:40.525Z,-1.690674
2023-01-30T04:20:05.789Z,-1.670532
2023-01-30T04:23:31.007Z,-1.700745
2023-01-30T04:26:56.273Z,-1.559753
2023-01-30T04:30:21.585Z,-1.610107
2023-01-30T04:33:46.839Z,-1.51947
2023-01-30T04:37:12.311Z,-1.549683
2023-01-30T04:40:37.592Z,-1.559753
2023-01-30T04:44:02.905Z,-1.448975
2023-01-30T04:47:28.154Z,-1.549683
2023-01-30T04:50:53.404Z,-1.720886
2023-01-30T04:54:18.677Z,-1.77124
2023-01-30T04:57:43.895Z,-1.730957
2023-01-30T05:01:11.093Z,-1.720886
2023-01-30T05:04:36.349Z,-1.730957
2023-01-30T05:08:01.617Z,-1.64032
2023-01-30T05:11:26.878Z,-1.51947
2023-01-30T05:14:52.122Z,-1.459045
2023-01-30T05:18:17.505Z,-1.378479
2023-01-30T05:21:42.771Z,-1.338196
2023-01-30T05:25:12.542Z,-1.2677
2023-01-30T05:28:37.840Z,-1.307983
2023-01-30T05:32:03.097Z,-1.368408
2023-01-30T05:35:28.386Z,-1.378479
2023-01-30T05:38:53.661Z,-1.398621
2023-01-30T05:42:18.932Z,-1.328125
2023-01-30T05:45:44.238Z,-1.197205
2023-01-30T05:49:09.519Z,-1.166992
2023-01-30T05:52:34.784Z,-1.116638
2023-01-30T05:56:00.145Z,-1.086426
2023-01-30T05:59:25.420Z,-1.116638
2023-01-30T06:02:50.744Z,-1.046143
2023-01-30T06:06:16.039Z,-1.036072
2023-01-30T06:09:41.333Z,-0.965576
2023-01-30T06:13:06.593Z,-0.834656
2023-01-30T06:16:32.070Z,-0.391541
2023-01-30T06:19:57.288Z,-0.441895
2023-01-30T06:23:22.583Z,-0.613098
2023-01-30T06:26:47.933Z,-0.613098
2023-01-30T06:30:13.307Z,-0.623169
2023-01-30T06:33:38.510Z,-0.673523
2023-01-30T06:37:03.858Z,-0.643311
2023-01-30T06:40:29.082Z,-0.703735
2023-01-30T06:43:54.401Z,-0.673523
2023-01-30T06:47:19.677Z,-0.723877
2023-01-30T06:50:44.978Z,-0.703735
2023-01-30T06:54:10.265Z,-0.784302
2023-01-30T06:57:35.542Z,-0.784302
2023-01-30T07:01:00.798Z,-0.754089
2023-01-30T07:04:26.709Z,-0.723877
2023-01-30T07:07:51.899Z,-0.613098
2023-01-30T07:11:17.207Z,-0.472107
2023-01-30T07:14:42.449Z,-0.391541
2023-01-30T07:18:07.723Z,-0.371399
2023-01-30T07:21:33.083Z,-0.391541
2023-01-30T07:24:58.347Z,-0.341187
2023-01-30T07:28:23.720Z,-0.250549
2023-01-30T07:31:48.998Z,-0.230408
2023-01-30T07:35:14.244Z,-0.26062
2023-01-30T07:38:39.557Z,-0.230408
2023-01-30T07:42:04.808Z,-0.159912
2023-01-30T07:45:30.135Z,-0.149841
2023-01-30T07:48:55.381Z,-0.139771
2023-01-30T07:52:20.706Z,-0.079346
2023-01-30T07:55:46.000Z,-0.049133
2023-01-30T07:59:11.269Z,-0.149841
2023-01-30T08:02:36.587Z,-0.180054
2023-01-30T08:06:01.890Z,-0.159912
2023-01-30T08:09:27.162Z,-0.049133
2023-01-30T08:12:52.490Z,0.112
2023-01-30T08:16:17.755Z,0.172424
2023-01-30T08:19:43.088Z,0.152283
2023-01-30T08:23:08.307Z,0.132141
2023-01-30T08:26:33.809Z,0.212708
2023-01-30T08:29:59.047Z,0.313416
2023-01-30T08:33:24.322Z,0.293274
2023-01-30T08:36:49.666Z,0.283203
2023-01-30T08:40:14.919Z,0.474548
2023-01-30T08:43:40.262Z,0.393982
2023-01-30T08:47:05.543Z,0.263062
2023-01-30T08:50:30.850Z,0.212708
2023-01-30T08:53:56.123Z,0.424194
2023-01-30T08:57:21.369Z,0.504761
2023-01-30T09:00:47.856Z,0.605469
2023-01-30T09:04:11.945Z,0.534973
2023-01-30T09:07:37.199Z,0.686035
2023-01-30T09:11:02.493Z,0.756531
2023-01-30T09:14:27.749Z,0.857239
2023-01-30T09:17:53.027Z,0.907593
2023-01-30T09:21:18.295Z,0.957947
2023-01-30T09:24:46.371Z,0.978088
2023-01-30T09:28:11.649Z,0.827026
2023-01-30T09:31:36.954Z,0.796814
2023-01-30T09:35:02.158Z,0.645752
2023-01-30T09:38:27.382Z,0.756531
2023-01-30T09:41:52.631Z,0.86731
2023-01-30T09:45:17.883Z,0.86731
2023-01-30T09:48:43.125Z,0.968018
2023-01-30T09:52:08.427Z,1.088867
2023-01-30T09:55:33.698Z,0.937805
2023-01-30T09:58:58.995Z,1.270142
2023-01-30T10:02:24.255Z,1.481628
2023-01-30T10:05:49.477Z,1.37085
2023-01-30T10:09:14.734Z,1.542053
2023-01-30T10:12:40.038Z,1.592407
2023-01-30T10:16:05.372Z,1.763611
2023-01-30T10:19:35.815Z,1.844177
2023-01-30T10:22:55.765Z,1.87439
2023-01-30T10:26:21.092Z,1.803894
2023-01-30T10:29:46.254Z,1.88446
2023-01-30T10:33:11.508Z,2.267151
2023-01-30T10:36:36.757Z,2.448425
2023-01-30T10:40:01.998Z,2.559204
2023-01-30T10:43:27.327Z,2.357788
2023-01-30T10:46:52.664Z,2.015381
2023-01-30T10:50:18.530Z,1.914673
2023-01-30T10:53:43.452Z,1.904602
2023-01-30T10:57:08.677Z,1.602478
2023-01-30T11:00:33.946Z,1.582336
2023-01-30T11:03:59.193Z,1.552124
2023-01-30T11:07:24.441Z,1.652832
2023-01-30T11:10:49.708Z,1.683044
2023-01-30T11:14:15.001Z,1.511841
2023-01-30T11:17:40.251Z,1.542053
2023-01-30T11:21:05.523Z,1.481628
2023-01-30T11:24:34.268Z,1.401062
2023-01-30T11:27:59.522Z,1.451416
2023-01-30T11:31:39.156Z,1.421204
2023-01-30T11:34:50.046Z,1.421204
2023-01-30T11:38:15.292Z,1.451416
2023-01-30T11:41:40.538Z,1.521912
2023-01-30T11:45:16.989Z,1.582336
2023-01-30T11:48:34.012Z,1.582336
2023-01-30T11:51:56.347Z,1.662903
2023-01-30T11:55:21.579Z,1.542053
2023-01-30T11:58:46.811Z,1.582336
2023-01-30T12:02:12.200Z,1.602478
2023-01-30T12:05:37.373Z,1.511841
2023-01-30T12:09:02.637Z,1.582336
2023-01-30T12:12:27.896Z,1.62262
2023-01-30T12:15:53.149Z,1.63269
2023-01-30T12:19:18.419Z,1.602478
2023-01-30T12:22:43.650Z,1.652832
2023-01-30T12:26:08.883Z,1.62262
2023-01-30T12:29:34.220Z,1.62262
2023-01-30T12:36:27.231Z,1.602478
2023-01-30T12:39:52.474Z,1.62262
2023-01-30T12:43:17.735Z,1.703186
2023-01-30T12:46:43.304Z,1.723328
2023-01-30T12:50:08.691Z,1.803894
2023-01-30T12:53:33.912Z,2.045593
2023-01-30T12:56:59.175Z,2.277222
2023-01-30T13:00:24.442Z,2.518921
2023-01-30T13:03:49.716Z,2.690125
2023-01-30T13:07:15.000Z,2.6297
2023-01-30T13:10:40.291Z,2.599487
2023-01-30T13:14:05.579Z,2.659912
2023-01-30T13:17:30.898Z,2.821045
2023-01-30T13:20:58.600Z,2.810974
2023-01-30T13:24:22.826Z,2.639771
2023-01-30T13:27:48.096Z,2.589417
2023-01-30T13:31:13.477Z,2.6297
2023-01-30T13:34:38.609Z,2.428284
2023-01-30T13:38:03.892Z,2.428284
2023-01-30T13:41:29.127Z,2.357788
2023-01-30T13:44:54.420Z,2.337646
2023-01-30T13:48:19.676Z,2.267151
2023-01-30T13:51:44.945Z,2.247009
2023-01-30T13:55:10.283Z,2.347717
2023-01-30T13:58:35.534Z,2.357788
2023-01-30T14:02:00.823Z,2.458496
2023-01-30T14:05:34.450Z,2.428284
2023-01-30T14:08:51.460Z,2.458496
2023-01-30T14:12:16.767Z,2.448425
2023-01-30T14:15:42.099Z,2.478638
2023-01-30T14:19:07.326Z,2.448425
2023-01-30T14:22:32.666Z,2.428284
2023-01-30T14:25:57.915Z,2.458496
2023-01-30T14:29:23.180Z,2.448425
2023-01-30T15:05:22.539Z,2.6297
2023-01-30T15:08:47.764Z,2.639771
2023-01-30T15:12:13.034Z,2.559204
2023-01-30T15:15:38.267Z,2.539062
2023-01-30T15:19:03.526Z,2.589417
2023-01-30T15:22:28.787Z,2.599487
2023-01-30T15:25:54.055Z,2.518921
2023-01-30T15:29:19.327Z,2.448425
2023-01-30T15:32:44.626Z,2.458496
2023-01-30T15:36:10.509Z,2.518921
2023-01-30T15:39:35.806Z,2.528992
2023-01-30T15:43:01.040Z,2.518921
2023-01-30T15:46:26.335Z,2.539062
2023-01-30T15:49:51.529Z,2.599487
2023-01-30T15:53:16.810Z,2.589417
2023-01-30T15:56:42.078Z,2.518921
2023-01-30T16:00:07.290Z,2.448425
2023-01-30T16:03:32.551Z,2.518921
2023-01-30T16:06:58.406Z,2.609558
2023-01-30T16:10:23.981Z,2.569275
2023-01-30T16:13:49.045Z,2.559204
2023-01-30T16:17:14.929Z,2.599487
2023-01-30T16:20:41.706Z,2.518921
2023-01-30T16:24:05.486Z,2.528992
2023-01-30T16:27:30.789Z,2.559204
2023-01-30T16:30:56.133Z,2.589417
2023-01-30T16:34:21.338Z,2.569275
2023-01-30T16:37:46.615Z,2.609558
2023-01-30T16:41:11.841Z,2.669983
2023-01-30T16:44:37.148Z,2.659912
2023-01-30T16:48:04.927Z,2.599487
2023-01-30T16:51:27.667Z,2.6297
2023-01-30T16:54:52.898Z,2.669983
2023-01-30T16:58:18.142Z,2.6297
2023-01-30T17:01:43.970Z,2.6297
2023-01-30T17:05:11.849Z,2.659912
2023-01-30T17:08:38.199Z,2.669983
2023-01-30T17:12:03.447Z,2.720337
2023-01-30T17:15:28.765Z,2.609558
2023-01-30T17:18:54.059Z,2.6297
2023-01-30T17:22:19.413Z,2.659912
2023-01-30T17:25:44.658Z,2.901611
2023-01-30T17:29:16.959Z,2.972107
2023-01-30T17:32:35.201Z,2.992249
2023-01-30T17:36:00.461Z,2.931824
2023-01-30T17:39:27.018Z,2.951965
2023-01-30T17:42:52.277Z,2.871399
2023-01-30T17:46:17.581Z,2.780762
2023-01-30T17:49:42.963Z,2.750549
2023-01-30T17:53:08.258Z,2.639771
2023-01-30T17:56:33.713Z,2.589417
2023-01-30T17:59:58.941Z,2.478638
2023-01-30T18:03:24.223Z,2.418213
2023-01-30T18:06:49.522Z,2.408142
2023-01-30T18:10:14.866Z,2.428284
2023-01-30T18:13:40.145Z,2.337646
2023-01-30T18:17:05.617Z,2.347717
2023-01-30T18:20:30.634Z,2.357788
2023-01-30T18:23:55.953Z,2.448425
2023-01-30T18:27:21.239Z,2.448425
2023-01-30T18:30:46.673Z,2.488708
2023-01-30T18:34:11.891Z,2.428284
2023-01-30T18:37:37.241Z,2.488708
2023-01-30T18:41:02.534Z,2.6297
2023-01-30T18:44:27.821Z,2.6297
2023-01-30T18:47:53.184Z,2.599487
2023-01-30T18:51:18.435Z,2.589417
2023-01-30T18:54:43.762Z,2.599487
2023-01-30T18:58:09.028Z,2.659912
2023-01-30T19:01:34.360Z,2.710266
2023-01-30T19:04:59.622Z,2.639771
2023-01-30T19:08:25.014Z,2.690125
2023-01-30T19:11:50.280Z,2.750549
2023-01-30T19:15:15.598Z,2.740479
2023-01-30T19:18:40.880Z,2.810974
2023-01-30T19:22:06.220Z,2.780762
2023-01-30T19:25:31.564Z,2.780762
2023-01-30T19:28:56.803Z,2.780762
2023-01-30T19:32:22.278Z,2.710266
2023-01-30T19:35:47.425Z,2.720337
2023-01-30T19:39:12.821Z,2.770691
2023-01-30T19:42:40.329Z,2.780762
2023-01-30T19:46:03.442Z,2.821045
2023-01-30T19:49:28.731Z,2.851257
2023-01-30T19:52:54.011Z,2.770691
2023-01-30T19:56:19.298Z,2.740479
2023-01-30T19:59:44.558Z,2.780762
2023-01-30T20:03:09.840Z,2.750549
2023-01-30T20:06:35.126Z,2.810974
2023-01-30T20:10:00.441Z,2.891541
2023-01-30T20:13:25.839Z,2.871399
2023-01-30T20:16:51.088Z,2.780762
2023-01-30T20:20:16.330Z,2.790833
2023-01-30T20:23:41.600Z,2.750549
2023-01-30T20:27:06.855Z,2.720337
2023-01-30T20:30:32.167Z,2.639771
2023-01-30T20:33:57.537Z,2.710266
2023-01-30T20:37:22.737Z,2.710266
2023-01-30T20:40:48.006Z,2.720337
2023-01-30T20:44:13.295Z,2.659912
2023-01-30T20:47:38.677Z,2.750549
2023-01-30T20:51:04.294Z,2.710266
2023-01-30T20:54:29.333Z,2.750549
2023-01-30T20:57:54.634Z,2.669983
2023-01-30T21:01:19.982Z,2.720337
2023-01-30T21:04:45.302Z,2.659912
2023-01-30T21:08:10.637Z,2.720337
2023-01-30T21:11:35.891Z,2.710266
2023-01-30T21:15:01.662Z,2.669983
2023-01-30T21:18:27.101Z,2.690125
2023-01-30T21:21:52.407Z,2.720337
2023-01-30T21:25:18.173Z,2.841187
2023-01-30T21:28:43.039Z,2.750549
2023-01-30T21:32:08.298Z,2.720337
2023-01-30T21:35:33.577Z,2.750549
2023-01-30T21:38:58.993Z,2.690125
2023-01-30T21:42:24.109Z,2.690125
2023-01-30T21:45:49.443Z,2.609558
2023-01-30T21:49:14.653Z,2.589417
2023-01-30T21:52:40.116Z,2.559204
2023-01-30T21:56:05.219Z,2.6297
2023-01-30T21:59:30.465Z,2.659912
2023-01-30T22:02:56.233Z,2.810974
2023-01-30T22:06:21.132Z,2.770691
2023-01-30T22:09:46.537Z,2.740479
2023-01-30T22:13:11.890Z,2.690125
2023-01-30T22:16:37.349Z,2.740479
2023-01-30T22:20:02.462Z,2.841187
2023-01-30T22:23:27.686Z,2.790833
2023-01-30T22:26:53.099Z,2.871399
2023-01-30T22:30:18.349Z,2.790833
2023-01-30T22:33:43.697Z,2.780762
2023-01-30T22:37:09.120Z,2.810974
2023-01-30T22:40:34.406Z,2.750549
2023-01-30T22:43:59.731Z,2.810974
2023-01-30T22:47:25.043Z,2.821045
2023-01-30T22:50:50.345Z,2.871399
2023-01-30T22:54:15.682Z,2.810974
2023-01-30T22:57:40.891Z,2.821045
2023-01-30T23:01:06.247Z,2.790833
2023-01-30T23:04:31.615Z,2.780762
2023-01-30T23:07:56.844Z,2.810974
2023-01-30T23:11:22.170Z,2.770691
2023-01-30T23:14:47.524Z,2.710266
2023-01-30T23:18:12.943Z,2.690125
2023-01-30T23:21:38.248Z,2.589417
2023-01-30T23:25:03.479Z,2.539062
2023-01-30T23:28:28.798Z,2.528992
2023-01-30T23:31:54.209Z,2.518921
2023-01-30T23:35:19.842Z,2.559204
2023-01-30T23:38:44.864Z,2.357788
2023-01-30T23:42:10.126Z,2.37793
2023-01-30T23:45:35.496Z,2.37793
2023-01-30T23:49:00.828Z,2.37793
2023-01-30T23:52:26.109Z,2.37793
2023-01-30T23:55:51.411Z,2.347717
2023-01-30T23:59:16.761Z,2.418213
